createdAt,value
2016-12-30T00:00:29.444Z,49.02
2016-12-30T00:01:10.077Z,49.02
2016-12-30T00:01:50.802Z,49.02
2016-12-30T00:02:31.435Z,49.02
2016-12-30T00:03:12.068Z,49.12
2016-12-30T00:03:52.703Z,48.74
2016-12-30T00:04:33.349Z,49.02
2016-12-30T00:05:13.995Z,49.02
2016-12-30T00:05:54.642Z,48.83
2016-12-30T00:06:35.272Z,48.93
2016-12-30T00:07:15.906Z,49.02
2016-12-30T00:07:56.549Z,48.93
2016-12-30T00:08:37.175Z,49.02
2016-12-30T00:09:17.805Z,48.83
2016-12-30T00:09:58.440Z,48.93
2016-12-30T00:10:39.093Z,48.83
2016-12-30T00:11:19.724Z,49.02
2016-12-30T00:12:00.348Z,49.02
2016-12-30T00:12:40.978Z,49.02
2016-12-30T00:13:21.612Z,49.02
2016-12-30T00:14:02.247Z,48.83
2016-12-30T00:14:42.964Z,49.02
2016-12-30T00:15:23.596Z,49.02
2016-12-30T00:16:04.229Z,48.93
2016-12-30T00:16:44.964Z,48.93
2016-12-30T00:17:25.599Z,48.93
2016-12-30T00:18:06.239Z,49.02
2016-12-30T00:18:46.885Z,49.12
2016-12-30T00:19:27.515Z,49.02
2016-12-30T00:20:08.156Z,49.02
2016-12-30T00:20:48.818Z,48.74
2016-12-30T00:21:29.455Z,48.83
2016-12-30T00:22:10.086Z,48.83
2016-12-30T00:22:50.715Z,48.74
2016-12-30T00:23:31.362Z,48.83
2016-12-30T00:24:11.991Z,49.02
2016-12-30T00:24:52.617Z,49.21
2016-12-30T00:25:33.251Z,48.54
2016-12-30T00:26:13.888Z,48.93
2016-12-30T00:26:54.530Z,49.12
2016-12-30T00:27:35.173Z,49.02
2016-12-30T00:28:15.802Z,49.02
2016-12-30T00:28:56.426Z,49.02
2016-12-30T00:29:37.060Z,49.02
2016-12-30T00:30:17.720Z,48.93
2016-12-30T00:30:58.350Z,49.02
2016-12-30T00:31:38.989Z,49.02
2016-12-30T00:32:19.614Z,48.93
2016-12-30T00:33:00.249Z,48.83
2016-12-30T00:33:40.886Z,48.93
2016-12-30T00:34:21.515Z,49.02
2016-12-30T00:35:02.148Z,49.02
2016-12-30T00:35:42.782Z,48.93
2016-12-30T00:36:23.428Z,49.02
2016-12-30T00:37:04.054Z,48.74
2016-12-30T00:37:44.685Z,49.21
2016-12-30T00:38:25.330Z,49.02
2016-12-30T00:39:05.965Z,48.93
2016-12-30T00:39:46.595Z,49.02
2016-12-30T00:40:27.250Z,48.93
2016-12-30T00:41:07.888Z,49.02
2016-12-30T00:41:48.534Z,49.02
2016-12-30T00:42:29.234Z,49.02
2016-12-30T00:43:09.869Z,49.02
2016-12-30T00:43:50.521Z,49.02
2016-12-30T00:44:31.155Z,49.02
2016-12-30T00:45:11.787Z,48.93
2016-12-30T00:45:52.416Z,49.02
2016-12-30T00:46:33.041Z,48.93
2016-12-30T00:47:13.688Z,49.12
2016-12-30T00:47:54.319Z,48.93
2016-12-30T00:48:34.953Z,49.12
2016-12-30T00:49:15.638Z,48.93
2016-12-30T00:49:56.300Z,49.02
2016-12-30T00:50:36.937Z,49.12
2016-12-30T00:51:17.584Z,49.41
2016-12-30T00:51:58.209Z,49.21
2016-12-30T00:52:38.849Z,48.93
2016-12-30T00:53:19.486Z,48.93
2016-12-30T00:54:00.112Z,48.93
2016-12-30T00:54:40.748Z,48.93
2016-12-30T00:55:21.372Z,49.31
2016-12-30T00:56:02.005Z,49.21
2016-12-30T00:56:42.739Z,48.83
2016-12-30T00:57:23.374Z,49.31
2016-12-30T00:58:04.009Z,49.31
2016-12-30T00:58:44.681Z,49.21
2016-12-30T00:59:25.312Z,49.31
2016-12-30T01:00:05.946Z,49.5
2016-12-30T01:00:46.584Z,49.31
2016-12-30T01:01:27.214Z,49.02
2016-12-30T01:02:07.843Z,49.31
2016-12-30T01:02:48.478Z,49.31
2016-12-30T01:03:29.123Z,49.31
2016-12-30T01:04:09.759Z,49.41
2016-12-30T01:04:50.393Z,49.41
2016-12-30T01:05:31.056Z,49.21
2016-12-30T01:06:11.696Z,49.31
2016-12-30T01:06:52.326Z,49.41
2016-12-30T01:07:32.960Z,49.41
2016-12-30T01:08:13.603Z,49.12
2016-12-30T01:08:54.240Z,49.41
2016-12-30T01:09:34.872Z,49.21
2016-12-30T01:10:15.513Z,49.31
2016-12-30T01:10:56.148Z,49.21
2016-12-30T01:11:36.780Z,49.21
2016-12-30T01:12:17.420Z,49.41
2016-12-30T01:12:58.064Z,49.02
2016-12-30T01:13:38.689Z,49.02
2016-12-30T01:14:19.329Z,49.12
2016-12-30T01:14:59.963Z,49.31
2016-12-30T01:15:40.595Z,49.41
2016-12-30T01:16:21.238Z,49.31
2016-12-30T01:17:01.857Z,49.41
2016-12-30T01:17:42.528Z,49.31
2016-12-30T01:18:23.154Z,49.41
2016-12-30T01:19:03.783Z,49.5
2016-12-30T01:19:44.449Z,49.12
2016-12-30T01:20:25.076Z,49.12
2016-12-30T01:21:05.724Z,49.02
2016-12-30T01:21:46.383Z,49.31
2016-12-30T01:22:27.027Z,49.31
2016-12-30T01:23:07.660Z,49.31
2016-12-30T01:23:48.309Z,49.21
2016-12-30T01:24:28.942Z,49.12
2016-12-30T01:25:09.575Z,49.6
2016-12-30T01:25:50.239Z,49.21
2016-12-30T01:26:30.871Z,49.12
2016-12-30T01:27:11.493Z,49.21
2016-12-30T01:27:52.142Z,49.12
2016-12-30T01:28:32.772Z,49.41
2016-12-30T01:29:13.420Z,49.31
2016-12-30T01:29:54.059Z,49.31
2016-12-30T01:30:34.700Z,49.31
2016-12-30T01:31:15.331Z,49.79
2016-12-30T01:31:55.963Z,49.6
2016-12-30T01:32:36.597Z,49.31
2016-12-30T01:33:17.224Z,49.31
2016-12-30T01:33:57.863Z,49.31
2016-12-30T01:34:38.486Z,49.41
2016-12-30T01:35:19.113Z,49.6
2016-12-30T01:35:59.737Z,49.6
2016-12-30T01:36:40.387Z,49.69
2016-12-30T01:37:21.035Z,49.6
2016-12-30T01:38:01.663Z,49.21
2016-12-30T01:38:42.294Z,49.21
2016-12-30T01:39:22.942Z,49.6
2016-12-30T01:40:03.577Z,49.21
2016-12-30T01:40:44.208Z,49.21
2016-12-30T01:41:24.952Z,49.02
2016-12-30T01:42:05.701Z,49.41
2016-12-30T01:42:46.332Z,49.21
2016-12-30T01:43:26.954Z,49.21
2016-12-30T01:44:07.587Z,49.21
2016-12-30T01:44:48.214Z,49.02
2016-12-30T01:45:28.843Z,49.21
2016-12-30T01:46:09.480Z,49.31
2016-12-30T01:46:50.110Z,49.21
2016-12-30T01:47:30.737Z,49.02
2016-12-30T01:48:11.373Z,49.21
2016-12-30T01:48:52.010Z,49.21
2016-12-30T01:49:32.637Z,49.31
2016-12-30T01:50:13.283Z,49.41
2016-12-30T01:50:53.915Z,49.41
2016-12-30T01:51:34.545Z,49.21
2016-12-30T01:52:15.180Z,49.02
2016-12-30T01:52:55.804Z,49.41
2016-12-30T01:53:36.443Z,49.31
2016-12-30T01:54:17.071Z,49.5
2016-12-30T01:54:57.705Z,49.21
2016-12-30T01:55:38.336Z,49.31
2016-12-30T01:56:18.968Z,49.41
2016-12-30T01:56:59.597Z,49.21
2016-12-30T01:57:40.233Z,49.21
2016-12-30T01:58:20.871Z,49.12
2016-12-30T01:59:01.503Z,49.21
2016-12-30T01:59:42.135Z,49.02
2016-12-30T02:00:22.807Z,49.69
2016-12-30T02:01:03.431Z,49.5
2016-12-30T02:01:44.068Z,49.6
2016-12-30T02:02:24.742Z,49.69
2016-12-30T02:03:05.355Z,49.21
2016-12-30T02:03:45.990Z,49.12
2016-12-30T02:04:26.663Z,49.41
2016-12-30T02:05:07.301Z,49.02
2016-12-30T02:05:47.925Z,49.41
2016-12-30T02:06:28.597Z,49.5
2016-12-30T02:07:09.229Z,49.41
2016-12-30T02:07:49.884Z,49.31
2016-12-30T02:08:30.490Z,49.12
2016-12-30T02:09:11.129Z,49.02
2016-12-30T02:09:51.768Z,49.41
2016-12-30T02:10:32.396Z,49.31
2016-12-30T02:11:13.019Z,49.41
2016-12-30T02:11:53.660Z,49.12
2016-12-30T02:12:34.286Z,49.21
2016-12-30T02:13:14.925Z,49.31
2016-12-30T02:13:55.580Z,49.12
2016-12-30T02:14:36.215Z,49.21
2016-12-30T02:15:16.846Z,49.41
2016-12-30T02:15:57.501Z,49.21
2016-12-30T02:16:38.189Z,49.31
2016-12-30T02:17:18.822Z,49.21
2016-12-30T02:17:59.448Z,49.21
2016-12-30T02:18:40.071Z,49.21
2016-12-30T02:19:20.692Z,49.21
2016-12-30T02:20:01.321Z,48.74
2016-12-30T02:20:42.050Z,48.83
2016-12-30T02:21:22.675Z,49.1
2016-12-30T02:22:03.318Z,49.21
2016-12-30T02:22:43.947Z,49.12
2016-12-30T02:23:24.609Z,48.93
2016-12-30T02:24:05.250Z,48.93
2016-12-30T02:24:45.884Z,48.83
2016-12-30T02:25:26.523Z,48.93
2016-12-30T02:26:07.149Z,48.9
2016-12-30T02:26:47.772Z,48.93
2016-12-30T02:27:28.400Z,48.83
2016-12-30T02:28:09.029Z,48.93
2016-12-30T02:28:49.709Z,48.8
2016-12-30T02:29:30.340Z,48.83
2016-12-30T02:30:10.964Z,49.02
2016-12-30T02:30:51.665Z,49.02
2016-12-30T02:31:32.284Z,48.9
2016-12-30T02:32:12.922Z,49.1
2016-12-30T02:32:53.557Z,48.93
2016-12-30T02:33:34.184Z,49
2016-12-30T02:34:14.819Z,48.9
2016-12-30T02:34:55.445Z,49
2016-12-30T02:35:36.068Z,49.02
2016-12-30T02:36:16.706Z,49
2016-12-30T02:36:57.329Z,48.83
2016-12-30T02:37:37.962Z,48.71
2016-12-30T02:38:18.639Z,48.54
2016-12-30T02:38:59.269Z,48.74
2016-12-30T02:39:39.891Z,48.83
2016-12-30T02:40:21.480Z,48.83
2016-12-30T02:41:02.110Z,48.61
2016-12-30T02:41:42.735Z,48.71
2016-12-30T02:42:23.403Z,48.61
2016-12-30T02:43:04.032Z,48.93
2016-12-30T02:43:44.659Z,49.02
2016-12-30T02:44:25.338Z,48.74
2016-12-30T02:45:05.977Z,49
2016-12-30T02:45:46.589Z,49.02
2016-12-30T02:46:27.215Z,49.02
2016-12-30T02:47:07.875Z,49.02
2016-12-30T02:47:48.502Z,48.9
2016-12-30T02:48:29.135Z,48.9
2016-12-30T02:49:09.758Z,49
2016-12-30T02:49:50.379Z,48.8
2016-12-30T02:50:31.009Z,49.19
2016-12-30T02:51:11.670Z,48.9
2016-12-30T02:51:52.305Z,48.61
2016-12-30T02:52:32.956Z,48.71
2016-12-30T02:53:13.640Z,48.61
2016-12-30T02:53:54.270Z,48.61
2016-12-30T02:54:34.933Z,48.9
2016-12-30T02:55:15.652Z,48.74
2016-12-30T02:55:56.278Z,48.71
2016-12-30T02:56:36.907Z,48.43
2016-12-30T02:57:17.566Z,48.71
2016-12-30T02:57:58.193Z,48.64
2016-12-30T02:58:38.826Z,48.44
2016-12-30T02:59:19.455Z,48.74
2016-12-30T03:00:00.096Z,48.43
2016-12-30T03:00:40.721Z,48.52
2016-12-30T03:01:21.355Z,48.74
2016-12-30T03:02:01.988Z,48.43
2016-12-30T03:02:42.620Z,48.44
2016-12-30T03:03:23.241Z,48.54
2016-12-30T03:04:03.872Z,48.44
2016-12-30T03:04:44.498Z,48.61
2016-12-30T03:05:25.124Z,48.61
2016-12-30T03:06:05.747Z,48.61
2016-12-30T03:06:46.479Z,48.61
2016-12-30T03:07:27.112Z,48.43
2016-12-30T03:08:07.739Z,48.8
2016-12-30T03:08:48.384Z,48.71
2016-12-30T03:09:29.012Z,48.8
2016-12-30T03:10:09.642Z,48.71
2016-12-30T03:10:50.363Z,48.71
2016-12-30T03:11:31.113Z,48.71
2016-12-30T03:12:11.751Z,48.71
2016-12-30T03:12:52.374Z,48.71
2016-12-30T03:13:33.014Z,48.71
2016-12-30T03:14:13.650Z,49
2016-12-30T03:14:54.275Z,48.8
2016-12-30T03:15:34.910Z,48.9
2016-12-30T03:16:15.552Z,48.71
2016-12-30T03:16:56.181Z,49
2016-12-30T03:17:36.829Z,48.52
2016-12-30T03:18:17.459Z,48.8
2016-12-30T03:18:58.088Z,48.9
2016-12-30T03:19:38.724Z,48.43
2016-12-30T03:20:19.359Z,48.71
2016-12-30T03:20:59.986Z,48.8
2016-12-30T03:21:40.629Z,48.52
2016-12-30T03:22:21.267Z,48.43
2016-12-30T03:23:01.915Z,48.61
2016-12-30T03:23:42.548Z,48.61
2016-12-30T03:24:23.176Z,48.43
2016-12-30T03:25:03.806Z,48.52
2016-12-30T03:25:44.446Z,48.52
2016-12-30T03:26:25.076Z,48.52
2016-12-30T03:27:05.705Z,48.71
2016-12-30T03:27:46.340Z,48.71
2016-12-30T03:28:26.970Z,48.8
2016-12-30T03:29:07.604Z,48.71
2016-12-30T03:29:48.239Z,48.52
2016-12-30T03:30:28.865Z,48.61
2016-12-30T03:31:09.486Z,48.71
2016-12-30T03:31:50.120Z,48.33
2016-12-30T03:32:30.751Z,48.61
2016-12-30T03:33:11.483Z,48.52
2016-12-30T03:33:52.190Z,48.71
2016-12-30T03:34:32.811Z,48.9
2016-12-30T03:35:13.444Z,48.71
2016-12-30T03:35:54.709Z,48.61
2016-12-30T03:36:35.344Z,48.52
2016-12-30T03:37:16.035Z,48.52
2016-12-30T03:37:56.669Z,48.61
2016-12-30T03:38:37.300Z,48.61
2016-12-30T03:39:17.933Z,48.52
2016-12-30T03:39:58.571Z,48.52
2016-12-30T03:40:39.195Z,48.71
2016-12-30T03:41:19.934Z,48.9
2016-12-30T03:42:00.565Z,48.9
2016-12-30T03:42:41.200Z,48.8
2016-12-30T03:43:21.904Z,48.71
2016-12-30T03:44:02.544Z,48.43
2016-12-30T03:44:43.162Z,48.71
2016-12-30T03:45:23.831Z,48.43
2016-12-30T03:46:04.455Z,48.43
2016-12-30T03:46:45.113Z,48.43
2016-12-30T03:47:25.791Z,48.52
2016-12-30T03:48:06.427Z,48.33
2016-12-30T03:48:47.051Z,48.52
2016-12-30T03:49:27.672Z,48.52
2016-12-30T03:50:08.297Z,48.8
2016-12-30T03:50:48.933Z,48.61
2016-12-30T03:51:29.586Z,48.61
2016-12-30T03:52:10.244Z,48.43
2016-12-30T03:52:50.917Z,48.43
2016-12-30T03:53:31.534Z,48.33
2016-12-30T03:54:12.156Z,48.33
2016-12-30T03:54:52.794Z,48.33
2016-12-30T03:55:33.423Z,48.61
2016-12-30T03:56:14.078Z,48.52
2016-12-30T03:56:54.706Z,48.52
2016-12-30T03:57:35.343Z,48.61
2016-12-30T03:58:15.976Z,48.61
2016-12-30T03:58:56.612Z,48.52
2016-12-30T03:59:37.239Z,48.71
2016-12-30T04:00:17.866Z,48.71
2016-12-30T04:00:58.533Z,48.61
2016-12-30T04:01:39.159Z,48.61
2016-12-30T04:02:19.792Z,48.61
2016-12-30T04:03:00.414Z,48.61
2016-12-30T04:03:41.043Z,48.33
2016-12-30T04:04:21.686Z,48.52
2016-12-30T04:05:02.322Z,48.23
2016-12-30T04:05:42.953Z,48.33
2016-12-30T04:06:23.586Z,48.52
2016-12-30T04:07:04.301Z,48.33
2016-12-30T04:07:44.919Z,48.52
2016-12-30T04:08:25.547Z,48.52
2016-12-30T04:09:06.192Z,48.52
2016-12-30T04:09:46.820Z,48.33
2016-12-30T04:10:27.468Z,48.43
2016-12-30T04:11:08.100Z,48.52
2016-12-30T04:11:48.733Z,48.61
2016-12-30T04:12:29.364Z,48.61
2016-12-30T04:13:10.006Z,48.52
2016-12-30T04:13:50.635Z,48.8
2016-12-30T04:14:31.259Z,48.9
2016-12-30T04:15:11.884Z,48.71
2016-12-30T04:15:52.523Z,48.61
2016-12-30T04:16:33.145Z,48.61
2016-12-30T04:17:13.775Z,48.71
2016-12-30T04:17:54.407Z,48.61
2016-12-30T04:18:35.029Z,48.61
2016-12-30T04:19:15.666Z,48.61
2016-12-30T04:19:56.355Z,48.61
2016-12-30T04:20:36.987Z,48.71
2016-12-30T04:21:17.617Z,48.43
2016-12-30T04:21:58.300Z,48.8
2016-12-30T04:22:38.938Z,48.9
2016-12-30T04:23:19.566Z,48.61
2016-12-30T04:24:00.202Z,48.61
2016-12-30T04:24:40.831Z,48.61
2016-12-30T04:25:21.464Z,48.43
2016-12-30T04:26:02.154Z,48.52
2016-12-30T04:26:42.790Z,48.61
2016-12-30T04:27:23.412Z,48.61
2016-12-30T04:28:04.126Z,48.61
2016-12-30T04:28:44.762Z,48.71
2016-12-30T04:29:25.389Z,48.61
2016-12-30T04:30:06.084Z,48.43
2016-12-30T04:30:46.720Z,48.52
2016-12-30T04:31:27.355Z,48.23
2016-12-30T04:32:08.011Z,48.33
2016-12-30T04:32:48.646Z,48.33
2016-12-30T04:33:29.268Z,48.23
2016-12-30T04:34:09.930Z,48.23
2016-12-30T04:34:50.559Z,48.33
2016-12-30T04:35:31.184Z,48.23
2016-12-30T04:36:11.813Z,48.23
2016-12-30T04:36:52.447Z,48.33
2016-12-30T04:37:33.070Z,48.33
2016-12-30T04:38:13.694Z,48.33
2016-12-30T04:38:54.353Z,48.04
2016-12-30T04:39:34.977Z,48.33
2016-12-30T04:40:15.606Z,48.33
2016-12-30T04:40:56.278Z,48.23
2016-12-30T04:41:36.903Z,48.23
2016-12-30T04:42:17.526Z,48.23
2016-12-30T04:42:58.154Z,48.23
2016-12-30T04:43:38.794Z,48.13
2016-12-30T04:44:19.424Z,47.94
2016-12-30T04:45:00.063Z,48.04
2016-12-30T04:45:40.690Z,48.04
2016-12-30T04:46:21.368Z,47.94
2016-12-30T04:47:01.993Z,48.23
2016-12-30T04:47:42.634Z,48.13
2016-12-30T04:48:23.327Z,48.04
2016-12-30T04:49:03.960Z,47.94
2016-12-30T04:49:44.591Z,47.94
2016-12-30T04:50:25.320Z,48.04
2016-12-30T04:51:06.034Z,48.04
2016-12-30T04:51:46.657Z,48.04
2016-12-30T04:52:27.287Z,47.94
2016-12-30T04:53:07.918Z,47.85
2016-12-30T04:53:48.550Z,47.75
2016-12-30T04:54:29.193Z,48.13
2016-12-30T04:55:09.822Z,48.04
2016-12-30T04:55:50.452Z,47.66
2016-12-30T04:56:31.079Z,47.66
2016-12-30T04:57:11.720Z,47.94
2016-12-30T04:57:52.350Z,47.94
2016-12-30T04:58:32.972Z,47.85
2016-12-30T04:59:13.690Z,48.04
2016-12-30T04:59:54.314Z,47.85
2016-12-30T05:00:34.938Z,48.04
2016-12-30T05:01:15.566Z,48.04
2016-12-30T05:01:56.188Z,47.94
2016-12-30T05:02:36.816Z,48.23
2016-12-30T05:03:17.459Z,47.94
2016-12-30T05:03:58.084Z,48.04
2016-12-30T05:04:38.717Z,47.85
2016-12-30T05:05:19.342Z,48.04
2016-12-30T05:05:59.985Z,48.04
2016-12-30T05:06:40.616Z,48.23
2016-12-30T05:07:21.242Z,48.04
2016-12-30T05:08:01.866Z,47.94
2016-12-30T05:08:42.504Z,47.94
2016-12-30T05:09:23.140Z,47.75
2016-12-30T05:10:03.758Z,47.85
2016-12-30T05:10:44.427Z,47.75
2016-12-30T05:11:25.067Z,47.75
2016-12-30T05:12:05.695Z,47.85
2016-12-30T05:12:46.370Z,47.66
2016-12-30T05:13:26.999Z,47.94
2016-12-30T05:14:07.629Z,47.85
2016-12-30T05:14:48.287Z,47.94
2016-12-30T05:15:28.915Z,47.66
2016-12-30T05:16:09.543Z,47.85
2016-12-30T05:16:50.209Z,47.85
2016-12-30T05:17:30.836Z,47.75
2016-12-30T05:18:11.457Z,47.66
2016-12-30T05:18:52.100Z,47.75
2016-12-30T05:19:32.774Z,47.66
2016-12-30T05:20:13.406Z,47.56
2016-12-30T05:20:54.038Z,47.75
2016-12-30T05:21:34.785Z,47.75
2016-12-30T05:22:15.418Z,47.85
2016-12-30T05:22:56.050Z,47.75
2016-12-30T05:23:36.677Z,47.56
2016-12-30T05:24:17.308Z,47.75
2016-12-30T05:24:57.935Z,47.75
2016-12-30T05:25:38.597Z,47.75
2016-12-30T05:26:19.227Z,47.75
2016-12-30T05:26:59.857Z,47.66
2016-12-30T05:27:40.583Z,47.66
2016-12-30T05:28:21.210Z,47.66
2016-12-30T05:29:01.850Z,47.66
2016-12-30T05:29:42.553Z,47.66
2016-12-30T05:30:23.182Z,47.85
2016-12-30T05:31:03.814Z,47.75
2016-12-30T05:31:44.448Z,47.75
2016-12-30T05:32:25.067Z,47.85
2016-12-30T05:33:05.701Z,47.75
2016-12-30T05:33:46.419Z,47.85
2016-12-30T05:34:27.053Z,47.75
2016-12-30T05:35:07.682Z,47.94
2016-12-30T05:35:48.324Z,47.75
2016-12-30T05:36:28.959Z,47.75
2016-12-30T05:37:09.578Z,47.94
2016-12-30T05:37:50.205Z,47.85
2016-12-30T05:38:30.834Z,48.04
2016-12-30T05:39:11.488Z,47.94
2016-12-30T05:39:52.113Z,47.85
2016-12-30T05:40:32.742Z,47.94
2016-12-30T05:41:13.398Z,47.94
2016-12-30T05:41:54.030Z,47.94
2016-12-30T05:42:34.672Z,47.56
2016-12-30T05:43:15.305Z,48.04
2016-12-30T05:43:55.931Z,48.23
2016-12-30T05:44:36.664Z,48.04
2016-12-30T05:45:17.210Z,47.94
2016-12-30T05:45:57.833Z,48.13
2016-12-30T05:46:38.467Z,48.04
2016-12-30T05:47:19.114Z,47.94
2016-12-30T05:47:59.765Z,48.04
2016-12-30T05:48:40.384Z,47.94
2016-12-30T05:49:21.017Z,47.94
2016-12-30T05:50:01.675Z,47.94
2016-12-30T05:50:42.295Z,48.13
2016-12-30T05:51:22.935Z,48.04
2016-12-30T05:52:03.559Z,47.94
2016-12-30T05:52:44.180Z,48.04
2016-12-30T05:53:24.824Z,48.23
2016-12-30T05:54:05.455Z,48.04
2016-12-30T05:54:46.085Z,48.13
2016-12-30T05:55:26.714Z,48.23
2016-12-30T05:56:07.348Z,47.94
2016-12-30T05:56:47.980Z,48.23
2016-12-30T05:57:28.615Z,48.23
2016-12-30T05:58:09.247Z,47.94
2016-12-30T05:58:49.879Z,48.13
2016-12-30T05:59:30.506Z,48.23
2016-12-30T06:00:11.126Z,48.33
2016-12-30T06:00:51.746Z,48.33
2016-12-30T06:01:32.427Z,48.33
2016-12-30T06:02:13.092Z,48.33
2016-12-30T06:02:53.723Z,48.33
2016-12-30T06:03:34.436Z,48.52
2016-12-30T06:04:15.060Z,48.52
2016-12-30T06:04:55.684Z,48.43
2016-12-30T06:05:36.441Z,48.43
2016-12-30T06:06:17.054Z,48.43
2016-12-30T06:06:57.731Z,48.52
2016-12-30T06:07:38.321Z,48.61
2016-12-30T06:08:18.955Z,48.71
2016-12-30T06:08:59.589Z,48.23
2016-12-30T06:09:40.219Z,48.61
2016-12-30T06:10:20.869Z,48.33
2016-12-30T06:11:01.492Z,48.33
2016-12-30T06:11:42.164Z,48.61
2016-12-30T06:12:22.802Z,48.33
2016-12-30T06:13:03.481Z,48.43
2016-12-30T06:13:44.061Z,48.43
2016-12-30T06:14:24.677Z,48.43
2016-12-30T06:15:05.313Z,48.43
2016-12-30T06:15:45.936Z,48.71
2016-12-30T06:16:26.590Z,48.71
2016-12-30T06:17:07.223Z,48.52
2016-12-30T06:17:47.848Z,48.43
2016-12-30T06:18:28.537Z,48.52
2016-12-30T06:19:09.177Z,48.43
2016-12-30T06:19:49.814Z,48.43
2016-12-30T06:20:30.446Z,48.43
2016-12-30T06:21:11.072Z,48.33
2016-12-30T06:21:51.701Z,48.49
2016-12-30T06:22:32.328Z,48.23
2016-12-30T06:23:12.956Z,48.23
2016-12-30T06:23:53.580Z,48.21
2016-12-30T06:24:34.209Z,48.33
2016-12-30T06:25:14.831Z,48.33
2016-12-30T06:25:55.461Z,48.13
2016-12-30T06:26:36.105Z,48.3
2016-12-30T06:27:16.731Z,48.13
2016-12-30T06:27:57.375Z,48.04
2016-12-30T06:28:37.989Z,47.94
2016-12-30T06:29:18.617Z,47.94
2016-12-30T06:29:59.302Z,47.94
2016-12-30T06:30:39.941Z,47.94
2016-12-30T06:31:20.562Z,47.73
2016-12-30T06:32:01.203Z,48.23
2016-12-30T06:32:41.892Z,47.94
2016-12-30T06:33:22.538Z,48.13
2016-12-30T06:34:03.172Z,47.94
2016-12-30T06:34:43.847Z,47.94
2016-12-30T06:35:24.474Z,47.85
2016-12-30T06:36:05.103Z,47.92
2016-12-30T06:36:45.770Z,47.82
2016-12-30T06:37:26.405Z,47.94
2016-12-30T06:38:07.027Z,48.04
2016-12-30T06:38:47.689Z,47.75
2016-12-30T06:39:28.312Z,48.02
2016-12-30T06:40:08.938Z,48.02
2016-12-30T06:40:49.574Z,47.94
2016-12-30T06:41:30.204Z,48.11
2016-12-30T06:42:10.828Z,47.82
2016-12-30T06:42:51.461Z,47.92
2016-12-30T06:43:32.093Z,47.73
2016-12-30T06:44:12.768Z,47.63
2016-12-30T06:44:53.400Z,47.92
2016-12-30T06:45:34.020Z,47.92
2016-12-30T06:46:14.685Z,48.02
2016-12-30T06:46:55.306Z,47.75
2016-12-30T06:47:35.931Z,47.66
2016-12-30T06:48:16.580Z,47.85
2016-12-30T06:48:57.206Z,47.73
2016-12-30T06:49:37.828Z,47.63
2016-12-30T06:50:18.572Z,47.73
2016-12-30T06:50:59.196Z,47.63
2016-12-30T06:51:39.838Z,47.53
2016-12-30T06:52:20.502Z,47.73
2016-12-30T06:53:01.141Z,47.73
2016-12-30T06:53:41.807Z,47.63
2016-12-30T06:54:22.424Z,47.73
2016-12-30T06:55:03.054Z,47.63
2016-12-30T06:55:43.687Z,47.63
2016-12-30T06:56:24.316Z,47.44
2016-12-30T06:57:04.955Z,47.63
2016-12-30T06:57:45.576Z,47.73
2016-12-30T06:58:26.214Z,47.44
2016-12-30T06:59:06.838Z,47.53
2016-12-30T06:59:47.472Z,47.34
2016-12-30T07:00:28.093Z,47.63
2016-12-30T07:01:08.722Z,47.73
2016-12-30T07:01:49.354Z,47.25
2016-12-30T07:02:29.987Z,47.44
2016-12-30T07:03:10.620Z,47.53
2016-12-30T07:03:51.242Z,47.53
2016-12-30T07:04:31.883Z,47.53
2016-12-30T07:05:12.516Z,47.53
2016-12-30T07:05:53.152Z,47.46
2016-12-30T07:06:33.817Z,47.34
2016-12-30T07:07:14.448Z,47.44
2016-12-30T07:07:55.078Z,47.63
2016-12-30T07:08:35.702Z,47.73
2016-12-30T07:09:16.378Z,47.73
2016-12-30T07:09:57.006Z,47.73
2016-12-30T07:10:37.632Z,47.63
2016-12-30T07:11:18.355Z,47.63
2016-12-30T07:11:58.986Z,47.53
2016-12-30T07:12:39.615Z,47.53
2016-12-30T07:13:20.275Z,47.63
2016-12-30T07:14:00.912Z,47.63
2016-12-30T07:14:41.543Z,47.92
2016-12-30T07:15:22.178Z,47.82
2016-12-30T07:16:02.804Z,48.02
2016-12-30T07:16:43.430Z,47.92
2016-12-30T07:17:24.062Z,47.63
2016-12-30T07:18:04.698Z,47.73
2016-12-30T07:18:45.411Z,47.73
2016-12-30T07:19:26.049Z,47.73
2016-12-30T07:20:06.681Z,47.73
2016-12-30T07:20:47.308Z,47.73
2016-12-30T07:21:27.939Z,47.82
2016-12-30T07:22:08.564Z,47.92
2016-12-30T07:22:49.268Z,47.73
2016-12-30T07:23:29.909Z,47.92
2016-12-30T07:24:10.544Z,47.92
2016-12-30T07:24:51.174Z,47.73
2016-12-30T07:25:31.837Z,47.73
2016-12-30T07:26:12.469Z,47.92
2016-12-30T07:26:53.098Z,47.73
2016-12-30T07:27:33.723Z,47.92
2016-12-30T07:28:14.357Z,48.02
2016-12-30T07:28:54.985Z,47.82
2016-12-30T07:29:35.612Z,47.92
2016-12-30T07:30:16.247Z,48.02
2016-12-30T07:30:56.903Z,47.63
2016-12-30T07:31:37.533Z,47.82
2016-12-30T07:32:18.163Z,47.73
2016-12-30T07:32:58.815Z,47.82
2016-12-30T07:33:39.448Z,47.73
2016-12-30T07:34:20.085Z,47.82
2016-12-30T07:35:00.720Z,47.73
2016-12-30T07:35:41.340Z,47.73
2016-12-30T07:36:21.969Z,47.63
2016-12-30T07:37:02.617Z,47.92
2016-12-30T07:37:43.254Z,47.73
2016-12-30T07:38:23.893Z,47.73
2016-12-30T07:39:04.624Z,47.73
2016-12-30T07:39:45.334Z,47.73
2016-12-30T07:40:25.964Z,47.92
2016-12-30T07:41:06.596Z,48.02
2016-12-30T07:41:47.232Z,47.92
2016-12-30T07:42:27.849Z,47.82
2016-12-30T07:43:08.477Z,47.73
2016-12-30T07:43:49.106Z,47.92
2016-12-30T07:44:29.745Z,48.02
2016-12-30T07:45:10.379Z,48.02
2016-12-30T07:45:51.011Z,47.92
2016-12-30T07:46:31.649Z,47.73
2016-12-30T07:47:12.277Z,48.02
2016-12-30T07:47:52.903Z,47.92
2016-12-30T07:48:33.537Z,47.92
2016-12-30T07:49:14.209Z,47.82
2016-12-30T07:49:54.903Z,47.92
2016-12-30T07:50:35.532Z,47.92
2016-12-30T07:51:16.177Z,47.73
2016-12-30T07:51:56.799Z,47.73
2016-12-30T07:52:37.435Z,47.73
2016-12-30T07:53:18.056Z,47.73
2016-12-30T07:53:58.690Z,47.92
2016-12-30T07:54:39.341Z,47.63
2016-12-30T07:55:19.978Z,47.73
2016-12-30T07:56:00.689Z,47.73
2016-12-30T07:56:41.350Z,47.92
2016-12-30T07:57:21.978Z,47.92
2016-12-30T07:58:02.635Z,47.73
2016-12-30T07:58:43.271Z,47.92
2016-12-30T07:59:23.916Z,47.92
2016-12-30T08:00:04.663Z,47.92
2016-12-30T08:00:45.297Z,47.73
2016-12-30T08:01:25.929Z,47.82
2016-12-30T08:02:06.642Z,47.63
2016-12-30T08:02:47.286Z,47.73
2016-12-30T08:03:27.916Z,47.44
2016-12-30T08:04:08.591Z,47.53
2016-12-30T08:04:49.230Z,47.53
2016-12-30T08:05:29.861Z,47.63
2016-12-30T08:06:10.567Z,47.63
2016-12-30T08:06:51.278Z,47.53
2016-12-30T08:07:31.914Z,47.53
2016-12-30T08:08:12.546Z,47.63
2016-12-30T08:08:53.213Z,47.53
2016-12-30T08:09:33.841Z,47.44
2016-12-30T08:10:14.478Z,47.44
2016-12-30T08:10:55.224Z,47.44
2016-12-30T08:11:35.851Z,47.63
2016-12-30T08:12:16.484Z,47.63
2016-12-30T08:12:57.188Z,47.63
2016-12-30T08:13:37.824Z,47.25
2016-12-30T08:14:18.455Z,47.44
2016-12-30T08:14:59.176Z,47.53
2016-12-30T08:15:39.807Z,47.53
2016-12-30T08:16:20.452Z,47.63
2016-12-30T08:17:01.132Z,47.53
2016-12-30T08:17:41.765Z,47.44
2016-12-30T08:18:22.389Z,47.63
2016-12-30T08:19:03.025Z,47.73
2016-12-30T08:19:43.659Z,47.34
2016-12-30T08:20:24.286Z,47.44
2016-12-30T08:21:04.926Z,47.44
2016-12-30T08:21:45.569Z,47.44
2016-12-30T08:22:26.202Z,47.63
2016-12-30T08:23:06.837Z,47.53
2016-12-30T08:23:47.496Z,47.63
2016-12-30T08:24:28.130Z,47.53
2016-12-30T08:25:08.755Z,47.63
2016-12-30T08:25:49.403Z,47.53
2016-12-30T08:26:30.055Z,47.63
2016-12-30T08:27:10.703Z,47.53
2016-12-30T08:27:51.333Z,47.44
2016-12-30T08:28:31.958Z,47.53
2016-12-30T08:29:12.592Z,47.44
2016-12-30T08:29:53.218Z,47.44
2016-12-30T08:30:33.845Z,47.53
2016-12-30T08:31:14.457Z,47.53
2016-12-30T08:31:55.081Z,47.53
2016-12-30T08:32:35.706Z,47.53
2016-12-30T08:33:16.421Z,47.63
2016-12-30T08:33:57.056Z,47.34
2016-12-30T08:34:37.691Z,47.63
2016-12-30T08:35:18.323Z,47.53
2016-12-30T08:35:58.948Z,47.25
2016-12-30T08:36:39.579Z,47.53
2016-12-30T08:37:20.205Z,47.73
2016-12-30T08:38:00.843Z,47.53
2016-12-30T08:38:41.466Z,47.53
2016-12-30T08:39:22.207Z,47.44
2016-12-30T08:40:02.848Z,47.53
2016-12-30T08:40:43.479Z,47.53
2016-12-30T08:41:24.119Z,47.63
2016-12-30T08:42:04.741Z,47.53
2016-12-30T08:42:45.373Z,47.63
2016-12-30T08:43:25.990Z,47.44
2016-12-30T08:44:06.653Z,47.34
2016-12-30T08:44:47.283Z,47.34